SondeTracker

Meteorological Radiosondes Database

Operations

Sounding was ended - last measurement: 2022-12-06 01:19:36z

MAP
About Radiosonde

Number: D20056304 (20056304)

Launch Site:

Type: DFM09P

AUX: NO

Frequency: 402.007 MHz

Max Speed: 157 km/h at 33646 m

Average Speed: 94.56 km/h

Max Altitude: 33646 m

Average Ascent Speed: 6.51 m/s

Average Descent Speed: 34.25 m/s

Status: UNKNOWN

Status Changes
Launch Site Type AUX Frequency Status Finder Landing Point Description Changes made by
APRS Statistics

Received Frames: 77

First Frame [UTC]: 2022-12-06 00:44:50z

Last Frame [UTC]: 2022-12-06 01:19:36z

Receivers: K7MTD, KA7FVV

Flight Time: 00:34:46 h

Distance From First Measurement: 57.09 km

Nearest City: [0.00 km]

Nearest Hunter: [0.00 km]

Ground Altitude: 654 m

Distance from QTH: 0.00 km

APRS Data
Receiver Number Date/Time [UTC] φ λ Course [°] Speed [km/h] Altitude [m] Description
KA7FVVD200563042022-12-06 01:19:3649.0731-117.569139934326Clb=-14.8m/s t=-18.5C h=-1.0% p=-1.0hPa 402.006 MHz Type=DFM09P ser=20056304 Radiosonde
KA7FVVD200563042022-12-06 01:19:0649.0386-117.576134914745Clb=-15.6m/s t=-21.3C h=-1.0% p=-1.0hPa 402.005 MHz Type=DFM09P ser=20056304 Radiosonde
KA7FVVD200563042022-12-06 01:18:3449.0464-117.589134965548Clb=-16.4m/s t=-27.7C h=-1.0% p=-1.0hPa 402.005 MHz Type=DFM09P ser=20056304 Radiosonde
KA7FVVD200563042022-12-06 01:18:0449.0486-117.592141965740Clb=-16.0m/s t=-29.1C h=-1.0% p=-1.0hPa 402.005 MHz Type=DFM09P ser=20056304 Radiosonde
KA7FVVD200563042022-12-06 01:17:3349.0548-117.5991401026257Clb=-17.1m/s t=-33.3C h=-1.0% p=-1.0hPa 402.005 MHz Type=DFM09P ser=20056304 Radiosonde
KA7FVVD200563042022-12-06 01:17:0149.0622-117.6071451176803Clb=-17.3m/s t=-37.0C h=-1.0% p=-1.0hPa 402.005 MHz Type=DFM09P ser=20056304 Radiosonde
KA7FVVD200563042022-12-06 01:16:2949.0693-117.6151391177342Clb=-17.8m/s t=-41.3C h=-1.0% p=-1.0hPa 402.005 MHz Type=DFM09P ser=20056304 Radiosonde
KA7FVVD200563042022-12-06 01:15:5949.0764-117.6241371157935Clb=-19.1m/s t=-45.6C h=-1.0% p=-1.0hPa 402.005 MHz Type=DFM09P ser=20056304 Radiosonde
KA7FVVD200563042022-12-06 01:15:3049.0826-117.6341321198494Clb=-18.9m/s t=-50.0C h=-1.0% p=-1.0hPa 402.005 MHz Type=DFM09P ser=20056304 Radiosonde
KA7FVVD200563042022-12-06 01:15:0049.0895-117.6441401199093Clb=-20.8m/s t=-54.0C h=-1.0% p=-1.0hPa 402.005 MHz Type=DFM09P ser=20056304 Radiosonde
KA7FVVD200563042022-12-06 01:14:3049.0967-117.6531371229757Clb=-22.4m/s t=-58.2C h=-1.0% p=-1.0hPa 402.005 MHz Type=DFM09P ser=20056304 Radiosonde
KA7FVVD200563042022-12-06 01:13:5949.1032-117.66313312010476Clb=-23.6m/s t=-62.2C h=-1.0% p=-1.0hPa 402.005 MHz Type=DFM09P ser=20056304 Radiosonde
KA7FVVD200563042022-12-06 01:13:2949.1109-117.67215212211235Clb=-23.7m/s t=-59.3C h=-1.0% p=-1.0hPa 402.005 MHz Type=DFM09P ser=20056304 Radiosonde
KA7FVVD200563042022-12-06 01:12:5849.116-117.6791189311999Clb=-25.1m/s t=-58.6C h=-1.0% p=-1.0hPa 402.005 MHz Type=DFM09P ser=20056304 Radiosonde
KA7FVVD200563042022-12-06 01:12:2649.1204-117.6881258712742Clb=-26.9m/s t=-56.7C h=-1.0% p=-1.0hPa 402.005 MHz Type=DFM09P ser=20056304 Radiosonde
KA7FVVD200563042022-12-06 01:11:5449.1251-117.6971339413607Clb=-27.1m/s t=-56.7C h=-1.0% p=-1.0hPa 402.005 MHz Type=DFM09P ser=20056304 Radiosonde
K7MTDD200563042022-12-06 01:11:5149.1283-117.7021349314116Clb=-29.8m/s t=-55.8C h=-1.0% p=-1.0hPa 402.006 MHz Type=DFM09P ser=20056304 Radiosonde
KA7FVVD200563042022-12-06 01:11:2349.1301-117.7041359614445Clb=-29.9m/s t=-55.3C h=-1.0% p=-1.0hPa 402.005 MHz Type=DFM09P ser=20056304 Radiosonde
K7MTDD200563042022-12-06 01:11:2049.1306-117.7051389414533Clb=-29.8m/s t=-55.0C h=-1.0% p=-1.0hPa 402.006 MHz Type=DFM09P ser=20056304 Radiosonde
KA7FVVD200563042022-12-06 01:10:5249.1346-117.7131178715362Clb=-28.0m/s t=-53.9C h=-1.0% p=-1.0hPa 402.005 MHz Type=DFM09P ser=20056304 Radiosonde
K7MTDD200563042022-12-06 01:10:5049.1349-117.7131169415444Clb=-28.4m/s t=-53.4C h=-1.0% p=-1.0hPa 402.006 MHz Type=DFM09P ser=20056304 Radiosonde
KA7FVVD200563042022-12-06 01:10:2049.1385-117.7221399616288Clb=-30.9m/s t=-54.7C h=-1.0% p=-1.0hPa 402.005 MHz Type=DFM09P ser=20056304 Radiosonde
K7MTDD200563042022-12-06 01:10:1849.139-117.7221408916383Clb=-32.7m/s t=-54.6C h=-1.0% p=-1.0hPa 402.006 MHz Type=DFM09P ser=20056304 Radiosonde
KA7FVVD200563042022-12-06 01:09:5049.1424-117.7291228517350Clb=-35.5m/s t=-55.7C h=-1.0% p=-1.0hPa 402.006 MHz Type=DFM09P ser=20056304 Radiosonde
K7MTDD200563042022-12-06 01:09:4749.1428-117.731237817488Clb=-36.5m/s t=-55.5C h=-1.0% p=-1.0hPa 402.006 MHz Type=DFM09P ser=20056304 Radiosonde
KA7FVVD200563042022-12-06 01:09:1949.1457-117.7361278518639Clb=-39.3m/s t=-56.7C h=-1.0% p=-1.0hPa 402.006 MHz Type=DFM09P ser=20056304 Radiosonde
K7MTDD200563042022-12-06 01:09:1649.1457-117.7361278518639Clb=-39.3m/s t=-56.7C h=-1.0% p=-1.0hPa 402.006 MHz Type=DFM09P ser=20056304 Radiosonde
KA7FVVD200563042022-12-06 01:08:4749.1502-117.74414410219756Clb=-31.3m/s t=-56.8C h=-1.0% p=-1.0hPa 402.006 MHz Type=DFM09P ser=20056304 Radiosonde
K7MTDD200563042022-12-06 01:08:4449.151-117.7451459419876Clb=-31.0m/s t=-56.7C h=-1.0% p=-1.0hPa 402.006 MHz Type=DFM09P ser=20056304 Radiosonde
KA7FVVD200563042022-12-06 01:08:1349.1566-117.751559120859Clb=-36.1m/s t=-56.0C h=-1.0% p=-1.0hPa 402.006 MHz Type=DFM09P ser=20056304 Radiosonde
K7MTDD200563042022-12-06 01:08:0949.1574-117.7511508021000Clb=-37.2m/s t=-54.0C h=-1.0% p=-1.0hPa 402.006 MHz Type=DFM09P ser=20056304 Radiosonde
K7MTDD200563042022-12-06 01:07:3849.161-117.7561355422208Clb=-40.6m/s t=-54.5C h=-1.0% p=-1.0hPa 402.006 MHz Type=DFM09P ser=20056304 Radiosonde
K7MTDD200563042022-12-06 01:07:0749.1646-117.7611437623399Clb=-44.9m/s t=-56.7C h=-1.0% p=-1.0hPa 402.006 MHz Type=DFM09P ser=20056304 Radiosonde
K7MTDD200563042022-12-06 01:06:4349.1694-117.7671488724662Clb=-38.0m/s t=-56.1C h=-1.0% p=-1.0hPa 402.006 MHz Type=DFM09P ser=20056304 Radiosonde
K7MTDD200563042022-12-06 01:06:4149.176-117.7711599825885Clb=-38.3m/s t=-57.4C h=-1.0% p=-1.0hPa 402.006 MHz Type=DFM09P ser=20056304 Radiosonde
K7MTDD200563042022-12-06 01:06:3949.1822-117.7741457427086Clb=-41.3m/s t=-59.3C h=-1.0% p=-1.0hPa 402.006 MHz Type=DFM09P ser=20056304 Radiosonde
K7MTDD200563042022-12-06 01:06:2349.1889-117.78214010628485Clb=-43.7m/s t=-62.1C h=-1.0% p=-1.0hPa 402.006 MHz Type=DFM09P ser=20056304 Radiosonde
K7MTDD200563042022-12-06 01:06:0249.1953-117.7941208930199Clb=-42.6m/s t=-57.3C h=-1.0% p=-1.0hPa 402.006 MHz Type=DFM09P ser=20056304 Radiosonde
K7MTDD200563042022-12-06 01:05:5649.1968-117.7971177830765Clb=-38.0m/s t=-58.1C h=-1.0% p=-1.0hPa 402.006 MHz Type=DFM09P ser=20056304 Radiosonde
K7MTDD200563042022-12-06 01:05:5149.2012-117.8061469831979Clb=-39.9m/s t=-63.7C h=-1.0% p=-1.0hPa 402.006 MHz Type=DFM09P ser=20056304 Radiosonde
K7MTDD200563042022-12-06 01:05:4549.207-117.81313210033204Clb=-37.0m/s t=-62.7C h=-1.0% p=-1.0hPa 402.006 MHz Type=DFM09P ser=20056304 Radiosonde
K7MTDD200563042022-12-06 01:05:2049.2138-117.82313415733646Clb=9.1m/s t=-60.4C h=-1.0% p=-1.0hPa 402.006 MHz Type=DFM09P ser=20056304 Radiosonde
K7MTDD200563042022-12-06 01:05:0049.2202-117.83311510433414Clb=7.0m/s t=-61.7C h=-1.0% p=-1.0hPa 402.006 MHz Type=DFM09P ser=20056304 Radiosonde
K7MTDD200563042022-12-06 01:04:5949.2255-117.8431316733182Clb=6.3m/s t=-62.8C h=-1.0% p=-1.0hPa 402.006 MHz Type=DFM09P ser=20056304 Radiosonde
K7MTDD200563042022-12-06 01:04:4649.2301-117.8521306732964Clb=7.1m/s t=-62.9C h=-1.0% p=-1.0hPa 402.006 MHz Type=DFM09P ser=20056304 Radiosonde
K7MTDD200563042022-12-06 01:04:0949.2349-117.85814510232768Clb=7.3m/s t=-63.0C h=-1.0% p=-1.0hPa 402.006 MHz Type=DFM09P ser=20056304 Radiosonde
K7MTDD200563042022-12-06 01:03:2649.2405-117.8661379332584Clb=5.6m/s t=-63.2C h=-1.0% p=-1.0hPa 402.006 MHz Type=DFM09P ser=20056304 Radiosonde
K7MTDD200563042022-12-06 01:02:4649.2467-117.87314610232431Clb=5.2m/s t=-64.5C h=-1.0% p=-1.0hPa 402.006 MHz Type=DFM09P ser=20056304 Radiosonde
K7MTDD200563042022-12-06 01:02:0549.2527-117.881399832276Clb=4.8m/s t=-64.6C h=-1.0% p=-1.0hPa 402.006 MHz Type=DFM09P ser=20056304 Radiosonde
K7MTDD200563042022-12-06 01:01:2049.2582-117.8871389432126Clb=5.4m/s t=-63.7C h=-1.0% p=-1.0hPa 402.006 MHz Type=DFM09P ser=20056304 Radiosonde
K7MTDD200563042022-12-06 01:00:3649.2648-117.89513110231967Clb=4.3m/s t=-63.2C h=-1.0% p=-1.0hPa 402.006 MHz Type=DFM09P ser=20056304 Radiosonde
K7MTDD200563042022-12-06 00:59:5149.271-117.90513411731817Clb=5.4m/s t=-63.2C h=-1.0% p=-1.0hPa 402.006 MHz Type=DFM09P ser=20056304 Radiosonde
K7MTDD200563042022-12-06 00:59:0849.2762-117.91612110231646Clb=6.0m/s t=-62.5C h=-1.0% p=-1.0hPa 402.006 MHz Type=DFM09P ser=20056304 Radiosonde
K7MTDD200563042022-12-06 00:58:2749.2802-117.92612410931450Clb=6.2m/s t=-61.8C h=-1.0% p=-1.0hPa 402.006 MHz Type=DFM09P ser=20056304 Radiosonde
K7MTDD200563042022-12-06 00:57:4249.2833-117.9351057431264Clb=6.6m/s t=-60.9C h=-1.0% p=-1.0hPa 402.006 MHz Type=DFM09P ser=20056304 Radiosonde
K7MTDD200563042022-12-06 00:56:5549.286-117.9441217431068Clb=5.9m/s t=-59.8C h=-1.0% p=-1.0hPa 402.007 MHz Type=DFM09P ser=20056304 Radiosonde
K7MTDD200563042022-12-06 00:56:1149.2898-117.9521178030887Clb=6.6m/s t=-60.2C h=-1.0% p=-1.0hPa 402.007 MHz Type=DFM09P ser=20056304 Radiosonde
K7MTDD200563042022-12-06 00:55:2449.293-117.961358730700Clb=3.8m/s t=-60.1C h=-1.0% p=-1.0hPa 402.007 MHz Type=DFM09P ser=20056304 Radiosonde
K7MTDD200563042022-12-06 00:54:3749.2961-117.9691016930505Clb=4.0m/s t=-59.9C h=-1.0% p=-1.0hPa 402.007 MHz Type=DFM09P ser=20056304 Radiosonde
K7MTDD200563042022-12-06 00:53:5049.2997-117.97813310430301Clb=6.7m/s t=-60.3C h=-1.0% p=-1.0hPa 402.007 MHz Type=DFM09P ser=20056304 Radiosonde
K7MTDD200563042022-12-06 00:53:0249.3031-117.9861096330070Clb=8.1m/s t=-60.4C h=-1.0% p=-1.0hPa 402.007 MHz Type=DFM09P ser=20056304 Radiosonde
K7MTDD200563042022-12-06 00:52:1049.3056-117.9931249429843Clb=6.2m/s t=-59.7C h=-1.0% p=-1.0hPa 402.007 MHz Type=DFM09P ser=20056304 Radiosonde
K7MTDD200563042022-12-06 00:51:3849.3083-117.9991444329628Clb=6.9m/s t=-60.9C h=-1.0% p=-1.0hPa 402.007 MHz Type=DFM09P ser=20056304 Radiosonde
K7MTDD200563042022-12-06 00:51:0549.3131-118.0051408529412Clb=6.7m/s t=-60.5C h=-1.0% p=-1.0hPa 402.007 MHz Type=DFM09P ser=20056304 Radiosonde
K7MTDD200563042022-12-06 00:50:3649.3185-118.011458529210Clb=5.8m/s t=-60.0C h=-1.0% p=-1.0hPa 402.007 MHz Type=DFM09P ser=20056304 Radiosonde
K7MTDD200563042022-12-06 00:50:0349.324-118.0161439629015Clb=7.2m/s t=-60.1C h=-1.0% p=-1.0hPa 402.007 MHz Type=DFM09P ser=20056304 Radiosonde
K7MTDD200563042022-12-06 00:49:3749.3755-118.07214511127473Clb=5.6m/s t=-58.8C h=-1.0% p=-1.0hPa 402.007 MHz Type=DFM09P ser=20056304 Radiosonde
K7MTDD200563042022-12-06 00:49:3549.3809-118.0791369327284Clb=5.3m/s t=-58.6C h=-1.0% p=-1.0hPa 402.007 MHz Type=DFM09P ser=20056304 Radiosonde
K7MTDD200563042022-12-06 00:49:3349.3862-118.0851519627103Clb=5.7m/s t=-58.5C h=-1.0% p=-1.0hPa 402.007 MHz Type=DFM09P ser=20056304 Radiosonde
K7MTDD200563042022-12-06 00:49:3149.3918-118.091458526933Clb=6.0m/s t=-58.1C h=-1.0% p=-1.0hPa 402.007 MHz Type=DFM09P ser=20056304 Radiosonde
K7MTDD200563042022-12-06 00:49:2949.398-118.0941598526748Clb=5.5m/s t=-57.6C h=-1.0% p=-1.0hPa 402.007 MHz Type=DFM09P ser=20056304 Radiosonde
K7MTDD200563042022-12-06 00:49:2049.4049-118.09716510026584Clb=5.6m/s t=-57.3C h=-1.0% p=-1.0hPa 402.007 MHz Type=DFM09P ser=20056304 Radiosonde
K7MTDD200563042022-12-06 00:48:3349.4126-118.09917111726409Clb=6.2m/s t=-57.5C h=-1.0% p=-1.0hPa 402.007 MHz Type=DFM09P ser=20056304 Radiosonde
K7MTDD200563042022-12-06 00:47:3649.4211-118.10215610026217Clb=6.3m/s t=-57.2C h=-1.0% p=-1.0hPa 402.007 MHz Type=DFM09P ser=20056304 Radiosonde
K7MTDD200563042022-12-06 00:46:4049.4293-118.10616310726013Clb=6.7m/s t=-57.7C h=-1.0% p=-1.0hPa 402.007 MHz Type=DFM09P ser=20056304 Radiosonde
K7MTDD200563042022-12-06 00:45:4449.4368-118.111609425817Clb=6.6m/s t=-58.6C h=-1.0% p=-1.0hPa 402.007 MHz Type=DFM09P ser=20056304 Radiosonde
K7MTDD200563042022-12-06 00:44:5049.444-118.11316311325638Clb=5.9m/s t=-58.5C h=-1.0% p=-1.0hPa 402.007 MHz Type=DFM09P ser=20056304 Radiosonde